sensor_id;sensor_type;location;lat;lon;timestamp;temperature;humidity
5870;DHT22;2961;47.702;9.410;2023-06-14T00:01:49;15.80;54.00
5870;DHT22;2961;47.702;9.410;2023-06-14T00:04:16;15.70;54.00
5870;DHT22;2961;47.702;9.410;2023-06-14T00:06:45;15.70;54.20
5870;DHT22;2961;47.702;9.410;2023-06-14T00:09:11;15.60;54.40
5870;DHT22;2961;47.702;9.410;2023-06-14T00:11:41;15.60;54.70
5870;DHT22;2961;47.702;9.410;2023-06-14T00:14:07;15.50;55.00
5870;DHT22;2961;47.702;9.410;2023-06-14T00:16:34;15.50;54.90
5870;DHT22;2961;47.702;9.410;2023-06-14T00:19:02;15.50;54.90
5870;DHT22;2961;47.702;9.410;2023-06-14T00:21:30;15.40;55.10
5870;DHT22;2961;47.702;9.410;2023-06-14T00:23:58;15.40;55.00
5870;DHT22;2961;47.702;9.410;2023-06-14T00:26:25;15.40;55.70
5870;DHT22;2961;47.702;9.410;2023-06-14T00:28:53;15.40;55.30
5870;DHT22;2961;47.702;9.410;2023-06-14T00:31:21;15.30;55.80
5870;DHT22;2961;47.702;9.410;2023-06-14T00:33:48;15.30;55.70
5870;DHT22;2961;47.702;9.410;2023-06-14T00:36:15;15.20;55.60
5870;DHT22;2961;47.702;9.410;2023-06-14T00:38:42;15.30;55.60
5870;DHT22;2961;47.702;9.410;2023-06-14T00:41:09;15.20;56.20
5870;DHT22;2961;47.702;9.410;2023-06-14T00:43:35;15.20;55.60
5870;DHT22;2961;47.702;9.410;2023-06-14T00:46:04;15.30;55.50
5870;DHT22;2961;47.702;9.410;2023-06-14T00:48:30;15.30;55.70
5870;DHT22;2961;47.702;9.410;2023-06-14T00:50:58;15.30;55.40
5870;DHT22;2961;47.702;9.410;2023-06-14T00:53:29;15.30;55.30
5870;DHT22;2961;47.702;9.410;2023-06-14T00:55:56;15.30;55.40
5870;DHT22;2961;47.702;9.410;2023-06-14T00:58:23;15.30;55.90
5870;DHT22;2961;47.702;9.410;2023-06-14T01:00:50;15.30;55.80
5870;DHT22;2961;47.702;9.410;2023-06-14T01:03:19;15.20;55.60
5870;DHT22;2961;47.702;9.410;2023-06-14T01:05:48;15.20;55.80
5870;DHT22;2961;47.702;9.410;2023-06-14T01:08:24;15.20;55.80
5870;DHT22;2961;47.702;9.410;2023-06-14T01:11:01;15.30;56.60
5870;DHT22;2961;47.702;9.410;2023-06-14T01:13:35;15.20;55.90
5870;DHT22;2961;47.702;9.410;2023-06-14T01:16:03;15.20;56.30
5870;DHT22;2961;47.702;9.410;2023-06-14T01:18:32;15.10;56.60
5870;DHT22;2961;47.702;9.410;2023-06-14T01:20:59;15.00;56.50
5870;DHT22;2961;47.702;9.410;2023-06-14T01:23:32;15.00;56.70
5870;DHT22;2961;47.702;9.410;2023-06-14T01:25:59;15.10;57.00
5870;DHT22;2961;47.702;9.410;2023-06-14T01:28:28;15.10;56.60
5870;DHT22;2961;47.702;9.410;2023-06-14T01:30:59;15.10;56.80
5870;DHT22;2961;47.702;9.410;2023-06-14T01:33:31;15.10;57.00
5870;DHT22;2961;47.702;9.410;2023-06-14T01:35:59;15.00;56.70
5870;DHT22;2961;47.702;9.410;2023-06-14T01:38:27;15.10;56.60
5870;DHT22;2961;47.702;9.410;2023-06-14T01:40:57;15.10;56.90
5870;DHT22;2961;47.702;9.410;2023-06-14T01:43:25;15.10;56.70
5870;DHT22;2961;47.702;9.410;2023-06-14T01:45:54;15.10;56.70
5870;DHT22;2961;47.702;9.410;2023-06-14T01:48:22;15.10;56.50
5870;DHT22;2961;47.702;9.410;2023-06-14T01:50:49;15.10;56.70
5870;DHT22;2961;47.702;9.410;2023-06-14T01:53:16;15.20;56.70
5870;DHT22;2961;47.702;9.410;2023-06-14T01:55:43;15.10;57.40
5870;DHT22;2961;47.702;9.410;2023-06-14T01:58:15;15.10;57.00
5870;DHT22;2961;47.702;9.410;2023-06-14T02:00:42;15.10;56.90
5870;DHT22;2961;47.702;9.410;2023-06-14T02:03:10;15.10;56.80
5870;DHT22;2961;47.702;9.410;2023-06-14T02:05:38;15.10;57.00
5870;DHT22;2961;47.702;9.410;2023-06-14T02:08:06;15.10;56.80
5870;DHT22;2961;47.702;9.410;2023-06-14T02:10:32;15.10;56.80
5870;DHT22;2961;47.702;9.410;2023-06-14T02:12:59;15.10;57.00
5870;DHT22;2961;47.702;9.410;2023-06-14T02:15:27;15.00;57.20
5870;DHT22;2961;47.702;9.410;2023-06-14T02:17:59;15.00;57.30
5870;DHT22;2961;47.702;9.410;2023-06-14T02:20:27;15.00;57.30
5870;DHT22;2961;47.702;9.410;2023-06-14T02:22:53;15.00;57.40
5870;DHT22;2961;47.702;9.410;2023-06-14T02:25:20;14.90;57.80
5870;DHT22;2961;47.702;9.410;2023-06-14T02:27:47;14.90;57.80
5870;DHT22;2961;47.702;9.410;2023-06-14T02:30:14;14.90;57.60
5870;DHT22;2961;47.702;9.410;2023-06-14T02:32:43;14.90;57.70
5870;DHT22;2961;47.702;9.410;2023-06-14T02:35:10;14.80;57.90
5870;DHT22;2961;47.702;9.410;2023-06-14T02:37:36;14.80;58.00
5870;DHT22;2961;47.702;9.410;2023-06-14T02:40:04;14.80;58.00
5870;DHT22;2961;47.702;9.410;2023-06-14T02:42:32;14.70;58.20
5870;DHT22;2961;47.702;9.410;2023-06-14T02:44:59;14.70;58.00
5870;DHT22;2961;47.702;9.410;2023-06-14T02:47:27;14.70;58.30
5870;DHT22;2961;47.702;9.410;2023-06-14T02:49:55;14.60;58.60
5870;DHT22;2961;47.702;9.410;2023-06-14T02:52:22;14.60;58.90
5870;DHT22;2961;47.702;9.410;2023-06-14T02:54:50;14.50;59.00
5870;DHT22;2961;47.702;9.410;2023-06-14T02:57:17;14.50;58.60
5870;DHT22;2961;47.702;9.410;2023-06-14T02:59:44;14.50;58.70
5870;DHT22;2961;47.702;9.410;2023-06-14T03:02:11;14.50;59.20
5870;DHT22;2961;47.702;9.410;2023-06-14T03:04:37;14.40;59.10
5870;DHT22;2961;47.702;9.410;2023-06-14T03:07:06;14.50;59.20
5870;DHT22;2961;47.702;9.410;2023-06-14T03:09:35;14.50;59.50
5870;DHT22;2961;47.702;9.410;2023-06-14T03:12:02;14.40;59.80
5870;DHT22;2961;47.702;9.410;2023-06-14T03:14:29;14.40;59.40
5870;DHT22;2961;47.702;9.410;2023-06-14T03:16:56;14.40;60.10
5870;DHT22;2961;47.702;9.410;2023-06-14T03:19:24;14.30;60.00
5870;DHT22;2961;47.702;9.410;2023-06-14T03:21:51;14.20;60.30
5870;DHT22;2961;47.702;9.410;2023-06-14T03:24:20;14.20;60.50
5870;DHT22;2961;47.702;9.410;2023-06-14T03:26:47;14.10;62.20
5870;DHT22;2961;47.702;9.410;2023-06-14T03:29:14;14.10;61.20
5870;DHT22;2961;47.702;9.410;2023-06-14T03:31:56;14.00;62.50
5870;DHT22;2961;47.702;9.410;2023-06-14T03:34:23;13.90;61.60
5870;DHT22;2961;47.702;9.410;2023-06-14T03:36:50;13.80;62.40
5870;DHT22;2961;47.702;9.410;2023-06-14T03:39:17;13.80;62.00
5870;DHT22;2961;47.702;9.410;2023-06-14T03:41:45;13.70;62.90
5870;DHT22;2961;47.702;9.410;2023-06-14T03:46:40;13.70;62.70
5870;DHT22;2961;47.702;9.410;2023-06-14T03:49:06;13.70;63.70
5870;DHT22;2961;47.702;9.410;2023-06-14T03:51:33;13.60;64.70
5870;DHT22;2961;47.702;9.410;2023-06-14T03:54:01;13.40;67.60
5870;DHT22;2961;47.702;9.410;2023-06-14T03:56:27;13.20;69.80
5870;DHT22;2961;47.702;9.410;2023-06-14T03:58:56;13.00;68.80
5870;DHT22;2961;47.702;9.410;2023-06-14T04:01:22;12.80;70.70
5870;DHT22;2961;47.702;9.410;2023-06-14T04:03:55;12.70;71.10
5870;DHT22;2961;47.702;9.410;2023-06-14T04:06:23;12.50;71.90
5870;DHT22;2961;47.702;9.410;2023-06-14T04:08:50;12.40;72.80
5870;DHT22;2961;47.702;9.410;2023-06-14T04:11:17;12.30;73.20
5870;DHT22;2961;47.702;9.410;2023-06-14T04:13:45;12.20;73.00
5870;DHT22;2961;47.702;9.410;2023-06-14T04:16:13;12.10;73.30
5870;DHT22;2961;47.702;9.410;2023-06-14T04:18:40;12.60;73.70
5870;DHT22;2961;47.702;9.410;2023-06-14T04:21:07;13.50;71.60
5870;DHT22;2961;47.702;9.410;2023-06-14T04:23:34;14.60;68.90
5870;DHT22;2961;47.702;9.410;2023-06-14T04:26:01;15.50;67.50
5870;DHT22;2961;47.702;9.410;2023-06-14T04:28:28;16.40;64.10
5870;DHT22;2961;47.702;9.410;2023-06-14T04:30:55;17.10;62.40
5870;DHT22;2961;47.702;9.410;2023-06-14T04:33:23;17.50;60.00
5870;DHT22;2961;47.702;9.410;2023-06-14T04:35:51;18.00;59.40
5870;DHT22;2961;47.702;9.410;2023-06-14T04:38:19;18.50;59.50
5870;DHT22;2961;47.702;9.410;2023-06-14T04:40:50;19.10;58.90
5870;DHT22;2961;47.702;9.410;2023-06-14T04:43:18;19.80;56.20
5870;DHT22;2961;47.702;9.410;2023-06-14T04:45:52;20.00;56.00
5870;DHT22;2961;47.702;9.410;2023-06-14T04:48:20;20.60;55.50
5870;DHT22;2961;47.702;9.410;2023-06-14T04:50:49;21.20;54.90
5870;DHT22;2961;47.702;9.410;2023-06-14T04:53:18;21.90;53.50
5870;DHT22;2961;47.702;9.410;2023-06-14T04:55:47;22.30;53.90
5870;DHT22;2961;47.702;9.410;2023-06-14T04:58:14;22.70;52.70
5870;DHT22;2961;47.702;9.410;2023-06-14T05:00:40;23.00;54.20
5870;DHT22;2961;47.702;9.410;2023-06-14T05:03:09;23.60;52.20
5870;DHT22;2961;47.702;9.410;2023-06-14T05:05:39;23.70;51.50
5870;DHT22;2961;47.702;9.410;2023-06-14T05:08:07;24.00;51.00
5870;DHT22;2961;47.702;9.410;2023-06-14T05:10:35;24.20;51.30
5870;DHT22;2961;47.702;9.410;2023-06-14T05:13:01;25.00;50.90
5870;DHT22;2961;47.702;9.410;2023-06-14T05:15:28;24.90;50.10
5870;DHT22;2961;47.702;9.410;2023-06-14T05:17:55;25.20;48.60
5870;DHT22;2961;47.702;9.410;2023-06-14T05:20:22;24.80;50.00
5870;DHT22;2961;47.702;9.410;2023-06-14T05:22:50;25.20;47.30
5870;DHT22;2961;47.702;9.410;2023-06-14T05:25:19;25.60;48.10
5870;DHT22;2961;47.702;9.410;2023-06-14T05:27:46;26.10;45.40
5870;DHT22;2961;47.702;9.410;2023-06-14T05:30:14;26.00;44.60
5870;DHT22;2961;47.702;9.410;2023-06-14T05:32:41;26.20;45.00
5870;DHT22;2961;47.702;9.410;2023-06-14T05:35:08;26.10;44.50
5870;DHT22;2961;47.702;9.410;2023-06-14T05:37:35;26.40;46.30
5870;DHT22;2961;47.702;9.410;2023-06-14T05:40:02;26.60;44.90
5870;DHT22;2961;47.702;9.410;2023-06-14T05:42:33;26.30;44.70
5870;DHT22;2961;47.702;9.410;2023-06-14T05:44:59;26.60;46.70
5870;DHT22;2961;47.702;9.410;2023-06-14T05:47:26;27.20;43.00
5870;DHT22;2961;47.702;9.410;2023-06-14T05:49:53;27.20;42.90
5870;DHT22;2961;47.702;9.410;2023-06-14T05:52:20;27.30;42.90
5870;DHT22;2961;47.702;9.410;2023-06-14T05:54:47;27.60;43.00
5870;DHT22;2961;47.702;9.410;2023-06-14T05:57:14;27.70;43.40
5870;DHT22;2961;47.702;9.410;2023-06-14T05:59:42;27.80;42.60
5870;DHT22;2961;47.702;9.410;2023-06-14T06:02:09;27.80;42.20
5870;DHT22;2961;47.702;9.410;2023-06-14T06:04:36;27.90;42.30
5870;DHT22;2961;47.702;9.410;2023-06-14T06:07:03;28.50;42.50
5870;DHT22;2961;47.702;9.410;2023-06-14T06:09:30;28.90;41.30
5870;DHT22;2961;47.702;9.410;2023-06-14T06:11:57;29.00;41.00
5870;DHT22;2961;47.702;9.410;2023-06-14T06:14:24;28.70;41.10
5870;DHT22;2961;47.702;9.410;2023-06-14T06:16:52;28.80;41.00
5870;DHT22;2961;47.702;9.410;2023-06-14T06:19:19;28.40;40.70
5870;DHT22;2961;47.702;9.410;2023-06-14T06:21:45;28.50;42.30
5870;DHT22;2961;47.702;9.410;2023-06-14T06:24:13;28.60;42.50
5870;DHT22;2961;47.702;9.410;2023-06-14T06:26:39;28.70;41.30
5870;DHT22;2961;47.702;9.410;2023-06-14T06:29:06;28.90;40.90
5870;DHT22;2961;47.702;9.410;2023-06-14T06:31:33;28.80;41.40
5870;DHT22;2961;47.702;9.410;2023-06-14T06:34:01;29.00;40.00
5870;DHT22;2961;47.702;9.410;2023-06-14T06:36:28;29.00;40.20
5870;DHT22;2961;47.702;9.410;2023-06-14T06:38:55;29.00;40.50
5870;DHT22;2961;47.702;9.410;2023-06-14T06:41:21;29.00;42.90
5870;DHT22;2961;47.702;9.410;2023-06-14T06:43:50;29.20;40.70
5870;DHT22;2961;47.702;9.410;2023-06-14T06:46:17;29.70;41.20
5870;DHT22;2961;47.702;9.410;2023-06-14T06:48:44;30.00;39.00
5870;DHT22;2961;47.702;9.410;2023-06-14T06:51:12;29.60;39.60
5870;DHT22;2961;47.702;9.410;2023-06-14T06:53:42;29.60;38.60
5870;DHT22;2961;47.702;9.410;2023-06-14T06:56:09;29.20;38.50
5870;DHT22;2961;47.702;9.410;2023-06-14T06:58:36;29.30;39.70
5870;DHT22;2961;47.702;9.410;2023-06-14T07:01:03;29.40;39.50
5870;DHT22;2961;47.702;9.410;2023-06-14T07:03:30;30.00;40.10
5870;DHT22;2961;47.702;9.410;2023-06-14T07:05:57;29.90;38.90
5870;DHT22;2961;47.702;9.410;2023-06-14T07:08:25;29.70;38.80
5870;DHT22;2961;47.702;9.410;2023-06-14T07:10:52;29.40;38.60
5870;DHT22;2961;47.702;9.410;2023-06-14T07:13:19;29.80;40.20
5870;DHT22;2961;47.702;9.410;2023-06-14T07:15:46;30.60;37.80
5870;DHT22;2961;47.702;9.410;2023-06-14T07:18:12;31.20;37.00
5870;DHT22;2961;47.702;9.410;2023-06-14T07:20:39;31.30;37.80
5870;DHT22;2961;47.702;9.410;2023-06-14T07:23:07;31.80;37.20
5870;DHT22;2961;47.702;9.410;2023-06-14T07:25:35;32.50;36.40
5870;DHT22;2961;47.702;9.410;2023-06-14T07:28:02;32.20;35.00
5870;DHT22;2961;47.702;9.410;2023-06-14T07:30:28;32.20;34.90
5870;DHT22;2961;47.702;9.410;2023-06-14T07:32:55;32.40;33.70
5870;DHT22;2961;47.702;9.410;2023-06-14T07:35:22;31.90;36.00
5870;DHT22;2961;47.702;9.410;2023-06-14T07:37:49;31.70;34.50
5870;DHT22;2961;47.702;9.410;2023-06-14T07:40:16;31.00;36.10
5870;DHT22;2961;47.702;9.410;2023-06-14T07:42:44;30.80;35.70
5870;DHT22;2961;47.702;9.410;2023-06-14T07:45:13;30.90;38.00
5870;DHT22;2961;47.702;9.410;2023-06-14T07:47:40;31.60;36.50
5870;DHT22;2961;47.702;9.410;2023-06-14T07:50:07;31.10;34.40
5870;DHT22;2961;47.702;9.410;2023-06-14T07:52:34;31.10;37.40
5870;DHT22;2961;47.702;9.410;2023-06-14T07:55:01;31.30;39.10
5870;DHT22;2961;47.702;9.410;2023-06-14T07:57:28;31.70;35.20
5870;DHT22;2961;47.702;9.410;2023-06-14T07:59:56;32.10;34.20
5870;DHT22;2961;47.702;9.410;2023-06-14T08:02:23;32.20;34.60
5870;DHT22;2961;47.702;9.410;2023-06-14T08:04:49;32.60;34.90
5870;DHT22;2961;47.702;9.410;2023-06-14T08:07:16;32.70;36.90
5870;DHT22;2961;47.702;9.410;2023-06-14T08:09:43;32.20;36.70
5870;DHT22;2961;47.702;9.410;2023-06-14T08:12:10;32.00;33.70
5870;DHT22;2961;47.702;9.410;2023-06-14T08:14:38;31.50;34.70
5870;DHT22;2961;47.702;9.410;2023-06-14T08:17:06;31.40;34.10
5870;DHT22;2961;47.702;9.410;2023-06-14T08:19:33;31.00;35.30
5870;DHT22;2961;47.702;9.410;2023-06-14T08:22:02;31.00;35.50
5870;DHT22;2961;47.702;9.410;2023-06-14T08:24:29;31.20;36.20
5870;DHT22;2961;47.702;9.410;2023-06-14T08:26:56;31.10;36.50
5870;DHT22;2961;47.702;9.410;2023-06-14T08:29:23;31.40;35.00
5870;DHT22;2961;47.702;9.410;2023-06-14T08:31:49;31.40;34.30
5870;DHT22;2961;47.702;9.410;2023-06-14T08:34:18;30.80;34.90
5870;DHT22;2961;47.702;9.410;2023-06-14T08:36:45;30.30;36.10
5870;DHT22;2961;47.702;9.410;2023-06-14T08:39:12;30.30;37.00
5870;DHT22;2961;47.702;9.410;2023-06-14T08:41:38;30.60;35.10
5870;DHT22;2961;47.702;9.410;2023-06-14T08:44:05;30.20;36.40
5870;DHT22;2961;47.702;9.410;2023-06-14T08:46:33;29.70;35.60
5870;DHT22;2961;47.702;9.410;2023-06-14T08:49:02;29.60;35.80
5870;DHT22;2961;47.702;9.410;2023-06-14T08:51:31;29.50;37.10
5870;DHT22;2961;47.702;9.410;2023-06-14T08:54:00;29.50;36.20
5870;DHT22;2961;47.702;9.410;2023-06-14T08:56:28;29.90;36.40
5870;DHT22;2961;47.702;9.410;2023-06-14T08:58:56;29.70;37.10
5870;DHT22;2961;47.702;9.410;2023-06-14T09:01:26;29.60;35.50
5870;DHT22;2961;47.702;9.410;2023-06-14T09:03:53;30.30;35.00
5870;DHT22;2961;47.702;9.410;2023-06-14T09:06:22;30.10;35.70
5870;DHT22;2961;47.702;9.410;2023-06-14T09:08:51;29.90;37.40
5870;DHT22;2961;47.702;9.410;2023-06-14T09:11:19;30.00;36.90
5870;DHT22;2961;47.702;9.410;2023-06-14T09:13:46;29.80;36.50
5870;DHT22;2961;47.702;9.410;2023-06-14T09:16:13;29.50;36.00
5870;DHT22;2961;47.702;9.410;2023-06-14T09:18:43;29.60;36.10
5870;DHT22;2961;47.702;9.410;2023-06-14T09:21:11;29.90;36.40
5870;DHT22;2961;47.702;9.410;2023-06-14T09:23:39;29.90;37.80
5870;DHT22;2961;47.702;9.410;2023-06-14T09:26:11;29.70;35.90
5870;DHT22;2961;47.702;9.410;2023-06-14T09:28:41;29.60;37.40
5870;DHT22;2961;47.702;9.410;2023-06-14T09:31:09;30.00;36.80
5870;DHT22;2961;47.702;9.410;2023-06-14T09:33:36;30.50;36.00
5870;DHT22;2961;47.702;9.410;2023-06-14T09:36:03;30.80;35.60
5870;DHT22;2961;47.702;9.410;2023-06-14T09:38:30;30.50;36.50
5870;DHT22;2961;47.702;9.410;2023-06-14T09:40:58;30.10;36.50
5870;DHT22;2961;47.702;9.410;2023-06-14T09:43:27;30.10;37.20
5870;DHT22;2961;47.702;9.410;2023-06-14T09:45:54;30.10;36.40
5870;DHT22;2961;47.702;9.410;2023-06-14T09:48:21;30.40;34.80
5870;DHT22;2961;47.702;9.410;2023-06-14T09:50:50;30.50;33.50
5870;DHT22;2961;47.702;9.410;2023-06-14T09:53:19;30.50;33.40
5870;DHT22;2961;47.702;9.410;2023-06-14T09:55:49;30.90;34.60
5870;DHT22;2961;47.702;9.410;2023-06-14T09:58:16;30.70;36.30
5870;DHT22;2961;47.702;9.410;2023-06-14T10:00:47;31.00;34.70
5870;DHT22;2961;47.702;9.410;2023-06-14T10:03:22;30.80;33.60
5870;DHT22;2961;47.702;9.410;2023-06-14T10:05:51;29.90;33.90
5870;DHT22;2961;47.702;9.410;2023-06-14T10:08:19;28.90;36.00
5870;DHT22;2961;47.702;9.410;2023-06-14T10:10:46;29.00;37.10
5870;DHT22;2961;47.702;9.410;2023-06-14T10:13:14;29.40;37.20
5870;DHT22;2961;47.702;9.410;2023-06-14T10:15:48;29.50;36.00
5870;DHT22;2961;47.702;9.410;2023-06-14T10:18:21;29.40;35.20
5870;DHT22;2961;47.702;9.410;2023-06-14T10:20:57;28.90;35.40
5870;DHT22;2961;47.702;9.410;2023-06-14T10:23:30;28.00;36.20
5870;DHT22;2961;47.702;9.410;2023-06-14T10:25:59;28.10;37.70
5870;DHT22;2961;47.702;9.410;2023-06-14T10:28:26;28.00;37.30
5870;DHT22;2961;47.702;9.410;2023-06-14T10:31:04;27.70;38.40
5870;DHT22;2961;47.702;9.410;2023-06-14T10:33:32;27.50;39.40
5870;DHT22;2961;47.702;9.410;2023-06-14T10:36:25;27.30;40.30
5870;DHT22;2961;47.702;9.410;2023-06-14T10:39:04;27.20;40.60
5870;DHT22;2961;47.702;9.410;2023-06-14T10:41:34;27.10;41.90
5870;DHT22;2961;47.702;9.410;2023-06-14T10:44:38;26.90;39.40
5870;DHT22;2961;47.702;9.410;2023-06-14T10:47:09;26.70;40.40
5870;DHT22;2961;47.702;9.410;2023-06-14T10:49:38;26.30;39.90
5870;DHT22;2961;47.702;9.410;2023-06-14T10:52:08;26.00;41.10
5870;DHT22;2961;47.702;9.410;2023-06-14T10:54:55;25.90;40.40
5870;DHT22;2961;47.702;9.410;2023-06-14T10:57:22;26.00;41.10
5870;DHT22;2961;47.702;9.410;2023-06-14T10:59:49;26.10;41.00
5870;DHT22;2961;47.702;9.410;2023-06-14T11:05:14;26.10;41.40
5870;DHT22;2961;47.702;9.410;2023-06-14T11:07:53;25.70;42.30
5870;DHT22;2961;47.702;9.410;2023-06-14T11:10:29;25.50;42.10
5870;DHT22;2961;47.702;9.410;2023-06-14T11:12:59;25.50;42.50
5870;DHT22;2961;47.702;9.410;2023-06-14T11:15:28;25.30;42.70
5870;DHT22;2961;47.702;9.410;2023-06-14T11:17:57;25.10;41.60
5870;DHT22;2961;47.702;9.410;2023-06-14T11:20:27;25.00;43.20
5870;DHT22;2961;47.702;9.410;2023-06-14T11:22:54;24.90;44.50
5870;DHT22;2961;47.702;9.410;2023-06-14T11:25:21;24.90;42.50
5870;DHT22;2961;47.702;9.410;2023-06-14T11:27:49;25.00;43.30
5870;DHT22;2961;47.702;9.410;2023-06-14T11:30:17;25.10;41.80
5870;DHT22;2961;47.702;9.410;2023-06-14T11:32:46;25.50;44.80
5870;DHT22;2961;47.702;9.410;2023-06-14T11:35:15;25.80;42.50
5870;DHT22;2961;47.702;9.410;2023-06-14T11:37:42;25.80;41.60
5870;DHT22;2961;47.702;9.410;2023-06-14T11:40:11;25.90;41.20
5870;DHT22;2961;47.702;9.410;2023-06-14T11:42:39;25.70;40.90
5870;DHT22;2961;47.702;9.410;2023-06-14T11:45:08;25.40;41.40
5870;DHT22;2961;47.702;9.410;2023-06-14T11:47:36;25.30;41.40
5870;DHT22;2961;47.702;9.410;2023-06-14T11:50:05;25.30;43.40
5870;DHT22;2961;47.702;9.410;2023-06-14T11:52:37;25.40;41.70
5870;DHT22;2961;47.702;9.410;2023-06-14T11:55:05;25.60;43.10
5870;DHT22;2961;47.702;9.410;2023-06-14T11:57:34;25.80;42.50
5870;DHT22;2961;47.702;9.410;2023-06-14T12:00:03;25.70;41.50
5870;DHT22;2961;47.702;9.410;2023-06-14T12:02:33;25.60;41.60
5870;DHT22;2961;47.702;9.410;2023-06-14T12:05:04;25.80;42.60
5870;DHT22;2961;47.702;9.410;2023-06-14T12:07:34;25.90;41.40
5870;DHT22;2961;47.702;9.410;2023-06-14T12:10:05;26.00;39.60
5870;DHT22;2961;47.702;9.410;2023-06-14T12:12:36;26.10;42.10
5870;DHT22;2961;47.702;9.410;2023-06-14T12:15:04;25.90;40.30
5870;DHT22;2961;47.702;9.410;2023-06-14T12:17:32;25.80;43.90
5870;DHT22;2961;47.702;9.410;2023-06-14T12:20:05;25.80;40.90
5870;DHT22;2961;47.702;9.410;2023-06-14T12:22:37;25.80;41.50
5870;DHT22;2961;47.702;9.410;2023-06-14T12:25:04;25.80;42.50
5870;DHT22;2961;47.702;9.410;2023-06-14T12:27:31;25.90;42.40
5870;DHT22;2961;47.702;9.410;2023-06-14T12:29:59;26.10;42.40
5870;DHT22;2961;47.702;9.410;2023-06-14T12:32:26;26.00;42.10
5870;DHT22;2961;47.702;9.410;2023-06-14T12:34:53;26.00;42.40
5870;DHT22;2961;47.702;9.410;2023-06-14T12:37:20;25.90;43.10
5870;DHT22;2961;47.702;9.410;2023-06-14T12:39:48;25.90;39.80
5870;DHT22;2961;47.702;9.410;2023-06-14T12:42:16;25.80;40.60
5870;DHT22;2961;47.702;9.410;2023-06-14T12:44:43;25.70;40.80
5870;DHT22;2961;47.702;9.410;2023-06-14T12:47:09;25.60;42.90
5870;DHT22;2961;47.702;9.410;2023-06-14T12:49:39;25.80;42.60
5870;DHT22;2961;47.702;9.410;2023-06-14T12:52:07;25.90;44.30
5870;DHT22;2961;47.702;9.410;2023-06-14T12:54:34;26.10;42.30
5870;DHT22;2961;47.702;9.410;2023-06-14T12:57:03;26.10;43.50
5870;DHT22;2961;47.702;9.410;2023-06-14T12:59:30;26.00;42.30
5870;DHT22;2961;47.702;9.410;2023-06-14T13:02:00;26.00;41.20
5870;DHT22;2961;47.702;9.410;2023-06-14T13:04:36;25.90;40.70
5870;DHT22;2961;47.702;9.410;2023-06-14T13:07:03;25.90;41.70
5870;DHT22;2961;47.702;9.410;2023-06-14T13:09:30;25.80;40.80
5870;DHT22;2961;47.702;9.410;2023-06-14T13:11:56;25.70;41.20
5870;DHT22;2961;47.702;9.410;2023-06-14T13:14:24;25.90;43.20
5870;DHT22;2961;47.702;9.410;2023-06-14T13:16:51;26.10;41.60
5870;DHT22;2961;47.702;9.410;2023-06-14T13:19:18;26.20;42.30
5870;DHT22;2961;47.702;9.410;2023-06-14T13:21:45;26.30;41.40
5870;DHT22;2961;47.702;9.410;2023-06-14T13:24:12;26.40;44.50
5870;DHT22;2961;47.702;9.410;2023-06-14T13:26:38;26.40;43.70
5870;DHT22;2961;47.702;9.410;2023-06-14T13:29:05;26.30;40.80
5870;DHT22;2961;47.702;9.410;2023-06-14T13:31:33;26.20;42.10
5870;DHT22;2961;47.702;9.410;2023-06-14T13:34:00;26.20;44.20
5870;DHT22;2961;47.702;9.410;2023-06-14T13:36:27;26.30;43.70
5870;DHT22;2961;47.702;9.410;2023-06-14T13:38:55;26.50;41.90
5870;DHT22;2961;47.702;9.410;2023-06-14T13:41:25;26.80;44.10
5870;DHT22;2961;47.702;9.410;2023-06-14T13:43:57;26.80;39.70
5870;DHT22;2961;47.702;9.410;2023-06-14T13:46:24;26.80;40.40
5870;DHT22;2961;47.702;9.410;2023-06-14T13:48:52;26.70;42.10
5870;DHT22;2961;47.702;9.410;2023-06-14T13:51:19;26.60;43.80
5870;DHT22;2961;47.702;9.410;2023-06-14T13:53:47;26.40;43.10
5870;DHT22;2961;47.702;9.410;2023-06-14T13:56:14;26.30;43.40
5870;DHT22;2961;47.702;9.410;2023-06-14T13:58:41;26.30;42.40
5870;DHT22;2961;47.702;9.410;2023-06-14T14:01:08;26.40;41.20
5870;DHT22;2961;47.702;9.410;2023-06-14T14:03:35;26.40;41.70
5870;DHT22;2961;47.702;9.410;2023-06-14T14:06:04;26.40;43.40
5870;DHT22;2961;47.702;9.410;2023-06-14T14:08:31;26.40;43.20
5870;DHT22;2961;47.702;9.410;2023-06-14T14:10:58;26.50;41.10
5870;DHT22;2961;47.702;9.410;2023-06-14T14:13:26;26.40;43.40
5870;DHT22;2961;47.702;9.410;2023-06-14T14:15:53;26.40;42.50
5870;DHT22;2961;47.702;9.410;2023-06-14T14:18:20;26.40;42.30
5870;DHT22;2961;47.702;9.410;2023-06-14T14:20:47;26.40;43.90
5870;DHT22;2961;47.702;9.410;2023-06-14T14:23:15;26.30;43.30
5870;DHT22;2961;47.702;9.410;2023-06-14T14:25:42;26.10;44.20
5870;DHT22;2961;47.702;9.410;2023-06-14T14:28:09;26.00;44.80
5870;DHT22;2961;47.702;9.410;2023-06-14T14:30:36;26.00;46.10
5870;DHT22;2961;47.702;9.410;2023-06-14T14:33:05;26.10;43.20
5870;DHT22;2961;47.702;9.410;2023-06-14T14:35:32;26.10;42.90
5870;DHT22;2961;47.702;9.410;2023-06-14T14:37:58;26.20;43.60
5870;DHT22;2961;47.702;9.410;2023-06-14T14:40:27;26.30;46.00
5870;DHT22;2961;47.702;9.410;2023-06-14T14:42:53;26.30;44.20
5870;DHT22;2961;47.702;9.410;2023-06-14T14:45:20;26.10;42.30
5870;DHT22;2961;47.702;9.410;2023-06-14T14:47:47;26.10;44.20
5870;DHT22;2961;47.702;9.410;2023-06-14T14:50:14;26.10;44.70
5870;DHT22;2961;47.702;9.410;2023-06-14T14:52:41;26.20;44.10
5870;DHT22;2961;47.702;9.410;2023-06-14T14:55:08;26.20;42.60
5870;DHT22;2961;47.702;9.410;2023-06-14T14:57:36;26.10;44.60
5870;DHT22;2961;47.702;9.410;2023-06-14T15:00:04;26.00;44.60
5870;DHT22;2961;47.702;9.410;2023-06-14T15:02:32;25.90;44.30
5870;DHT22;2961;47.702;9.410;2023-06-14T15:04:58;25.80;44.60
5870;DHT22;2961;47.702;9.410;2023-06-14T15:07:26;25.90;44.20
5870;DHT22;2961;47.702;9.410;2023-06-14T15:09:53;25.80;42.40
5870;DHT22;2961;47.702;9.410;2023-06-14T15:12:20;25.80;43.90
5870;DHT22;2961;47.702;9.410;2023-06-14T15:14:50;25.70;43.00
5870;DHT22;2961;47.702;9.410;2023-06-14T15:17:17;25.50;43.00
5870;DHT22;2961;47.702;9.410;2023-06-14T15:19:46;25.30;43.40
5870;DHT22;2961;47.702;9.410;2023-06-14T15:22:13;25.30;44.10
5870;DHT22;2961;47.702;9.410;2023-06-14T15:24:40;25.40;44.60
5870;DHT22;2961;47.702;9.410;2023-06-14T15:27:07;25.50;44.40
5870;DHT22;2961;47.702;9.410;2023-06-14T15:29:34;25.50;46.70
5870;DHT22;2961;47.702;9.410;2023-06-14T15:32:03;25.50;46.30
5870;DHT22;2961;47.702;9.410;2023-06-14T15:34:30;25.60;44.40
5870;DHT22;2961;47.702;9.410;2023-06-14T15:36:57;25.70;44.80
5870;DHT22;2961;47.702;9.410;2023-06-14T15:39:24;25.80;45.90
5870;DHT22;2961;47.702;9.410;2023-06-14T15:41:52;25.80;44.20
5870;DHT22;2961;47.702;9.410;2023-06-14T15:44:19;25.80;46.10
5870;DHT22;2961;47.702;9.410;2023-06-14T15:46:46;25.90;45.60
5870;DHT22;2961;47.702;9.410;2023-06-14T15:49:14;26.00;44.50
5870;DHT22;2961;47.702;9.410;2023-06-14T15:51:41;25.90;42.70
5870;DHT22;2961;47.702;9.410;2023-06-14T15:54:08;25.80;43.10
5870;DHT22;2961;47.702;9.410;2023-06-14T15:56:35;25.80;45.00
5870;DHT22;2961;47.702;9.410;2023-06-14T15:59:01;25.70;42.90
5870;DHT22;2961;47.702;9.410;2023-06-14T16:01:29;25.60;42.50
5870;DHT22;2961;47.702;9.410;2023-06-14T16:03:56;25.50;43.20
5870;DHT22;2961;47.702;9.410;2023-06-14T16:06:24;25.60;43.80
5870;DHT22;2961;47.702;9.410;2023-06-14T16:08:51;25.40;42.80
5870;DHT22;2961;47.702;9.410;2023-06-14T16:11:18;25.40;45.60
5870;DHT22;2961;47.702;9.410;2023-06-14T16:13:45;25.50;45.90